sensor_id;sensor_type;location;lat;lon;timestamp;P1;durP1;ratioP1;P2;durP2;ratioP2
16516;SDS011;8371;52.272;9.746;2023-07-31T00:00:27;0.60;;;0.60;;
16516;SDS011;8371;52.272;9.746;2023-07-31T00:02:53;1.03;;;0.70;;
16516;SDS011;8371;52.272;9.746;2023-07-31T00:05:19;0.53;;;0.50;;
16516;SDS011;8371;52.272;9.746;2023-07-31T00:07:46;2.07;;;0.60;;
16516;SDS011;8371;52.272;9.746;2023-07-31T00:10:11;0.50;;;0.50;;
16516;SDS011;8371;52.272;9.746;2023-07-31T00:12:38;2.93;;;0.60;;
16516;SDS011;8371;52.272;9.746;2023-07-31T00:15:06;0.80;;;0.80;;
16516;SDS011;8371;52.272;9.746;2023-07-31T00:17:32;3.37;;;0.67;;
16516;SDS011;8371;52.272;9.746;2023-07-31T00:19:58;0.63;;;0.60;;
16516;SDS011;8371;52.272;9.746;2023-07-31T00:22:24;0.70;;;0.67;;
16516;SDS011;8371;52.272;9.746;2023-07-31T00:24:49;0.60;;;0.60;;
16516;SDS011;8371;52.272;9.746;2023-07-31T00:27:15;0.50;;;0.50;;
16516;SDS011;8371;52.272;9.746;2023-07-31T00:29:41;0.50;;;0.50;;
16516;SDS011;8371;52.272;9.746;2023-07-31T00:32:07;0.43;;;0.43;;
16516;SDS011;8371;52.272;9.746;2023-07-31T00:34:33;0.60;;;0.60;;
16516;SDS011;8371;52.272;9.746;2023-07-31T00:36:58;0.53;;;0.53;;
16516;SDS011;8371;52.272;9.746;2023-07-31T00:39:24;0.50;;;0.50;;
16516;SDS011;8371;52.272;9.746;2023-07-31T00:41:50;0.37;;;0.37;;
16516;SDS011;8371;52.272;9.746;2023-07-31T00:44:15;0.63;;;0.63;;
16516;SDS011;8371;52.272;9.746;2023-07-31T00:46:41;0.93;;;0.50;;
16516;SDS011;8371;52.272;9.746;2023-07-31T00:49:07;0.57;;;0.57;;
16516;SDS011;8371;52.272;9.746;2023-07-31T00:51:33;1.43;;;0.63;;
16516;SDS011;8371;52.272;9.746;2023-07-31T00:53:59;0.50;;;0.50;;
16516;SDS011;8371;52.272;9.746;2023-07-31T00:56:25;2.40;;;0.77;;
16516;SDS011;8371;52.272;9.746;2023-07-31T00:58:53;0.40;;;0.37;;
16516;SDS011;8371;52.272;9.746;2023-07-31T01:01:18;0.30;;;0.30;;
16516;SDS011;8371;52.272;9.746;2023-07-31T01:03:44;0.50;;;0.50;;
16516;SDS011;8371;52.272;9.746;2023-07-31T01:09:00;2.00;;;0.20;;
16516;SDS011;8371;52.272;9.746;2023-07-31T01:11:31;0.40;;;0.40;;
16516;SDS011;8371;52.272;9.746;2023-07-31T01:14:03;0.77;;;0.27;;
16516;SDS011;8371;52.272;9.746;2023-07-31T01:16:29;0.30;;;0.30;;
16516;SDS011;8371;52.272;9.746;2023-07-31T01:18:54;0.30;;;0.30;;
16516;SDS011;8371;52.272;9.746;2023-07-31T01:21:44;0.30;;;0.30;;
16516;SDS011;8371;52.272;9.746;2023-07-31T01:26:50;0.50;;;0.40;;
16516;SDS011;8371;52.272;9.746;2023-07-31T01:29:32;0.30;;;0.30;;
16516;SDS011;8371;52.272;9.746;2023-07-31T01:31:56;0.37;;;0.37;;
16516;SDS011;8371;52.272;9.746;2023-07-31T01:34:24;0.20;;;0.20;;
16516;SDS011;8371;52.272;9.746;2023-07-31T01:36:51;0.20;;;0.20;;
16516;SDS011;8371;52.272;9.746;2023-07-31T01:39:16;0.30;;;0.30;;
16516;SDS011;8371;52.272;9.746;2023-07-31T01:41:45;0.30;;;0.30;;
16516;SDS011;8371;52.272;9.746;2023-07-31T01:44:11;0.50;;;0.50;;
16516;SDS011;8371;52.272;9.746;2023-07-31T01:46:37;0.30;;;0.30;;
16516;SDS011;8371;52.272;9.746;2023-07-31T01:49:03;0.30;;;0.30;;
16516;SDS011;8371;52.272;9.746;2023-07-31T01:51:30;0.83;;;0.30;;
16516;SDS011;8371;52.272;9.746;2023-07-31T01:53:58;0.30;;;0.30;;
16516;SDS011;8371;52.272;9.746;2023-07-31T01:56:24;0.50;;;0.50;;
16516;SDS011;8371;52.272;9.746;2023-07-31T01:58:49;0.30;;;0.30;;
16516;SDS011;8371;52.272;9.746;2023-07-31T02:01:15;0.30;;;0.30;;
16516;SDS011;8371;52.272;9.746;2023-07-31T02:03:41;0.30;;;0.30;;
16516;SDS011;8371;52.272;9.746;2023-07-31T02:06:07;0.20;;;0.20;;
16516;SDS011;8371;52.272;9.746;2023-07-31T02:08:33;0.30;;;0.30;;
16516;SDS011;8371;52.272;9.746;2023-07-31T02:10:58;0.43;;;0.40;;
16516;SDS011;8371;52.272;9.746;2023-07-31T02:13:24;0.20;;;0.20;;
16516;SDS011;8371;52.272;9.746;2023-07-31T02:15:50;0.20;;;0.20;;
16516;SDS011;8371;52.272;9.746;2023-07-31T02:18:16;0.20;;;0.20;;
16516;SDS011;8371;52.272;9.746;2023-07-31T02:20:41;0.33;;;0.33;;
16516;SDS011;8371;52.272;9.746;2023-07-31T02:23:07;0.20;;;0.20;;
16516;SDS011;8371;52.272;9.746;2023-07-31T02:25:33;0.30;;;0.30;;
16516;SDS011;8371;52.272;9.746;2023-07-31T02:27:58;0.20;;;0.20;;
16516;SDS011;8371;52.272;9.746;2023-07-31T02:30:24;0.20;;;0.20;;
16516;SDS011;8371;52.272;9.746;2023-07-31T02:32:50;0.20;;;0.20;;
16516;SDS011;8371;52.272;9.746;2023-07-31T02:35:15;0.10;;;0.10;;
16516;SDS011;8371;52.272;9.746;2023-07-31T02:37:42;0.10;;;0.10;;
16516;SDS011;8371;52.272;9.746;2023-07-31T02:40:08;0.10;;;0.10;;
16516;SDS011;8371;52.272;9.746;2023-07-31T02:42:34;0.10;;;0.10;;
16516;SDS011;8371;52.272;9.746;2023-07-31T02:44:59;0.20;;;0.20;;
16516;SDS011;8371;52.272;9.746;2023-07-31T02:47:25;0.20;;;0.20;;
16516;SDS011;8371;52.272;9.746;2023-07-31T02:49:51;0.13;;;0.13;;
16516;SDS011;8371;52.272;9.746;2023-07-31T02:52:16;0.10;;;0.10;;
16516;SDS011;8371;52.272;9.746;2023-07-31T02:54:42;0.17;;;0.17;;
16516;SDS011;8371;52.272;9.746;2023-07-31T02:57:08;0.30;;;0.30;;
16516;SDS011;8371;52.272;9.746;2023-07-31T02:59:33;0.20;;;0.20;;
16516;SDS011;8371;52.272;9.746;2023-07-31T03:01:59;0.10;;;0.10;;
16516;SDS011;8371;52.272;9.746;2023-07-31T03:04:25;0.10;;;0.10;;
16516;SDS011;8371;52.272;9.746;2023-07-31T03:06:50;0.20;;;0.20;;
16516;SDS011;8371;52.272;9.746;2023-07-31T03:09:16;0.10;;;0.10;;
16516;SDS011;8371;52.272;9.746;2023-07-31T03:11:42;0.10;;;0.10;;
16516;SDS011;8371;52.272;9.746;2023-07-31T03:14:07;0.20;;;0.20;;
16516;SDS011;8371;52.272;9.746;2023-07-31T03:16:33;0.10;;;0.10;;
16516;SDS011;8371;52.272;9.746;2023-07-31T03:18:59;0.17;;;0.17;;
16516;SDS011;8371;52.272;9.746;2023-07-31T03:21:24;0.13;;;0.13;;
16516;SDS011;8371;52.272;9.746;2023-07-31T03:23:50;1.03;;;0.10;;
16516;SDS011;8371;52.272;9.746;2023-07-31T03:26:16;0.30;;;0.30;;
16516;SDS011;8371;52.272;9.746;2023-07-31T03:28:41;0.20;;;0.20;;
16516;SDS011;8371;52.272;9.746;2023-07-31T03:31:07;0.20;;;0.20;;
16516;SDS011;8371;52.272;9.746;2023-07-31T03:33:33;0.40;;;0.40;;
16516;SDS011;8371;52.272;9.746;2023-07-31T03:35:59;0.30;;;0.30;;
16516;SDS011;8371;52.272;9.746;2023-07-31T03:38:25;0.30;;;0.30;;
16516;SDS011;8371;52.272;9.746;2023-07-31T03:40:50;0.40;;;0.40;;
16516;SDS011;8371;52.272;9.746;2023-07-31T03:43:16;0.30;;;0.30;;
16516;SDS011;8371;52.272;9.746;2023-07-31T03:45:42;0.30;;;0.30;;
16516;SDS011;8371;52.272;9.746;2023-07-31T03:48:08;0.47;;;0.47;;
16516;SDS011;8371;52.272;9.746;2023-07-31T03:50:34;0.30;;;0.30;;
16516;SDS011;8371;52.272;9.746;2023-07-31T03:52:59;0.30;;;0.30;;
16516;SDS011;8371;52.272;9.746;2023-07-31T03:55:25;0.40;;;0.40;;
16516;SDS011;8371;52.272;9.746;2023-07-31T03:57:51;0.40;;;0.40;;
16516;SDS011;8371;52.272;9.746;2023-07-31T04:00:16;0.40;;;0.40;;
16516;SDS011;8371;52.272;9.746;2023-07-31T04:02:42;0.77;;;0.40;;
16516;SDS011;8371;52.272;9.746;2023-07-31T04:05:08;0.40;;;0.40;;
16516;SDS011;8371;52.272;9.746;2023-07-31T04:07:33;0.20;;;0.20;;
16516;SDS011;8371;52.272;9.746;2023-07-31T04:09:59;0.17;;;0.17;;
16516;SDS011;8371;52.272;9.746;2023-07-31T04:12:25;0.20;;;0.20;;
16516;SDS011;8371;52.272;9.746;2023-07-31T04:14:51;0.37;;;0.37;;
16516;SDS011;8371;52.272;9.746;2023-07-31T04:17:17;9.43;;;0.43;;
16516;SDS011;8371;52.272;9.746;2023-07-31T04:19:43;0.37;;;0.37;;
16516;SDS011;8371;52.272;9.746;2023-07-31T04:22:09;0.40;;;0.40;;
16516;SDS011;8371;52.272;9.746;2023-07-31T04:24:35;0.17;;;0.17;;
16516;SDS011;8371;52.272;9.746;2023-07-31T04:27:00;0.20;;;0.20;;
16516;SDS011;8371;52.272;9.746;2023-07-31T04:29:26;0.40;;;0.40;;
16516;SDS011;8371;52.272;9.746;2023-07-31T04:31:52;0.30;;;0.30;;
16516;SDS011;8371;52.272;9.746;2023-07-31T04:34:17;0.23;;;0.23;;
16516;SDS011;8371;52.272;9.746;2023-07-31T04:36:43;0.30;;;0.30;;
16516;SDS011;8371;52.272;9.746;2023-07-31T04:39:09;0.30;;;0.30;;
16516;SDS011;8371;52.272;9.746;2023-07-31T04:41:34;0.10;;;0.10;;
16516;SDS011;8371;52.272;9.746;2023-07-31T04:44:00;0.23;;;0.23;;
16516;SDS011;8371;52.272;9.746;2023-07-31T04:46:26;0.20;;;0.20;;
16516;SDS011;8371;52.272;9.746;2023-07-31T04:48:52;4.33;;;0.10;;
16516;SDS011;8371;52.272;9.746;2023-07-31T04:51:17;0.20;;;0.20;;
16516;SDS011;8371;52.272;9.746;2023-07-31T04:53:43;0.10;;;0.10;;
16516;SDS011;8371;52.272;9.746;2023-07-31T04:56:09;0.10;;;0.10;;
16516;SDS011;8371;52.272;9.746;2023-07-31T04:58:34;0.10;;;0.10;;
16516;SDS011;8371;52.272;9.746;2023-07-31T05:01:00;0.20;;;0.10;;
16516;SDS011;8371;52.272;9.746;2023-07-31T05:03:26;0.20;;;0.20;;
16516;SDS011;8371;52.272;9.746;2023-07-31T05:05:51;0.20;;;0.20;;
16516;SDS011;8371;52.272;9.746;2023-07-31T05:08:17;0.13;;;0.13;;
16516;SDS011;8371;52.272;9.746;2023-07-31T05:10:43;1.63;;;0.27;;
16516;SDS011;8371;52.272;9.746;2023-07-31T05:13:09;0.20;;;0.20;;
16516;SDS011;8371;52.272;9.746;2023-07-31T05:15:34;0.30;;;0.30;;
16516;SDS011;8371;52.272;9.746;2023-07-31T05:18:00;0.53;;;0.53;;
16516;SDS011;8371;52.272;9.746;2023-07-31T05:20:26;1.23;;;1.00;;
16516;SDS011;8371;52.272;9.746;2023-07-31T05:22:53;1.10;;;1.10;;
16516;SDS011;8371;52.272;9.746;2023-07-31T05:25:18;1.30;;;1.30;;
16516;SDS011;8371;52.272;9.746;2023-07-31T05:27:44;1.40;;;1.40;;
16516;SDS011;8371;52.272;9.746;2023-07-31T05:30:10;1.53;;;1.53;;
16516;SDS011;8371;52.272;9.746;2023-07-31T05:32:36;1.50;;;1.50;;
16516;SDS011;8371;52.272;9.746;2023-07-31T05:35:01;1.80;;;1.70;;
16516;SDS011;8371;52.272;9.746;2023-07-31T05:37:27;1.67;;;1.60;;
16516;SDS011;8371;52.272;9.746;2023-07-31T05:39:53;1.97;;;1.97;;
16516;SDS011;8371;52.272;9.746;2023-07-31T05:42:19;2.27;;;2.17;;
16516;SDS011;8371;52.272;9.746;2023-07-31T05:44:44;1.70;;;1.70;;
16516;SDS011;8371;52.272;9.746;2023-07-31T05:47:10;2.33;;;2.23;;
16516;SDS011;8371;52.272;9.746;2023-07-31T05:49:36;2.53;;;2.43;;
16516;SDS011;8371;52.272;9.746;2023-07-31T05:52:02;2.40;;;2.20;;
16516;SDS011;8371;52.272;9.746;2023-07-31T05:54:27;2.03;;;2.00;;
16516;SDS011;8371;52.272;9.746;2023-07-31T05:56:53;2.43;;;2.33;;
16516;SDS011;8371;52.272;9.746;2023-07-31T05:59:19;2.60;;;2.07;;
16516;SDS011;8371;52.272;9.746;2023-07-31T06:01:44;2.07;;;2.00;;
16516;SDS011;8371;52.272;9.746;2023-07-31T06:04:10;1.90;;;1.90;;
16516;SDS011;8371;52.272;9.746;2023-07-31T06:06:36;2.47;;;2.27;;
16516;SDS011;8371;52.272;9.746;2023-07-31T06:09:01;1.97;;;1.87;;
16516;SDS011;8371;52.272;9.746;2023-07-31T06:11:28;2.37;;;2.27;;
16516;SDS011;8371;52.272;9.746;2023-07-31T06:13:54;1.93;;;1.93;;
16516;SDS011;8371;52.272;9.746;2023-07-31T06:16:20;3.30;;;3.03;;
16516;SDS011;8371;52.272;9.746;2023-07-31T06:18:47;2.27;;;2.17;;
16516;SDS011;8371;52.272;9.746;2023-07-31T06:21:12;2.20;;;2.10;;
16516;SDS011;8371;52.272;9.746;2023-07-31T06:23:38;2.13;;;2.03;;
16516;SDS011;8371;52.272;9.746;2023-07-31T06:26:04;2.10;;;2.00;;
16516;SDS011;8371;52.272;9.746;2023-07-31T06:28:29;2.77;;;2.67;;
16516;SDS011;8371;52.272;9.746;2023-07-31T06:30:56;2.13;;;2.07;;
16516;SDS011;8371;52.272;9.746;2023-07-31T06:33:22;2.20;;;2.10;;
16516;SDS011;8371;52.272;9.746;2023-07-31T06:35:48;2.20;;;2.10;;
16516;SDS011;8371;52.272;9.746;2023-07-31T06:38:14;2.30;;;2.20;;
16516;SDS011;8371;52.272;9.746;2023-07-31T06:40:40;2.57;;;2.30;;
16516;SDS011;8371;52.272;9.746;2023-07-31T06:43:05;2.67;;;2.57;;
16516;SDS011;8371;52.272;9.746;2023-07-31T06:45:35;3.43;;;3.13;;
16516;SDS011;8371;52.272;9.746;2023-07-31T06:48:02;3.07;;;2.97;;
16516;SDS011;8371;52.272;9.746;2023-07-31T06:50:33;3.00;;;2.90;;
16516;SDS011;8371;52.272;9.746;2023-07-31T06:52:57;3.43;;;3.27;;
16516;SDS011;8371;52.272;9.746;2023-07-31T06:55:23;4.40;;;3.20;;
16516;SDS011;8371;52.272;9.746;2023-07-31T06:57:50;3.63;;;3.43;;
16516;SDS011;8371;52.272;9.746;2023-07-31T07:00:17;4.37;;;3.87;;
16516;SDS011;8371;52.272;9.746;2023-07-31T07:02:44;3.50;;;3.20;;
16516;SDS011;8371;52.272;9.746;2023-07-31T07:05:13;3.97;;;3.70;;
16516;SDS011;8371;52.272;9.746;2023-07-31T07:07:39;4.00;;;3.70;;
16516;SDS011;8371;52.272;9.746;2023-07-31T07:10:06;3.20;;;3.10;;
16516;SDS011;8371;52.272;9.746;2023-07-31T07:12:32;3.90;;;3.70;;
16516;SDS011;8371;52.272;9.746;2023-07-31T07:14:58;3.87;;;3.60;;
16516;SDS011;8371;52.272;9.746;2023-07-31T07:17:25;4.33;;;3.83;;
16516;SDS011;8371;52.272;9.746;2023-07-31T07:19:56;3.77;;;3.47;;
16516;SDS011;8371;52.272;9.746;2023-07-31T07:22:22;3.73;;;3.63;;
16516;SDS011;8371;52.272;9.746;2023-07-31T07:24:49;4.40;;;4.10;;
16516;SDS011;8371;52.272;9.746;2023-07-31T07:27:15;4.33;;;4.10;;
16516;SDS011;8371;52.272;9.746;2023-07-31T07:29:40;3.90;;;3.60;;
16516;SDS011;8371;52.272;9.746;2023-07-31T07:32:06;3.57;;;3.37;;
16516;SDS011;8371;52.272;9.746;2023-07-31T07:34:32;3.60;;;3.30;;
16516;SDS011;8371;52.272;9.746;2023-07-31T07:36:58;3.43;;;3.27;;
16516;SDS011;8371;52.272;9.746;2023-07-31T07:39:23;3.50;;;3.30;;
16516;SDS011;8371;52.272;9.746;2023-07-31T07:41:50;7.57;;;3.53;;
16516;SDS011;8371;52.272;9.746;2023-07-31T07:44:16;4.80;;;3.83;;
16516;SDS011;8371;52.272;9.746;2023-07-31T07:46:41;3.13;;;3.03;;
16516;SDS011;8371;52.272;9.746;2023-07-31T07:49:07;3.43;;;3.23;;
16516;SDS011;8371;52.272;9.746;2023-07-31T07:51:33;3.10;;;2.90;;
16516;SDS011;8371;52.272;9.746;2023-07-31T07:53:59;3.00;;;2.90;;
16516;SDS011;8371;52.272;9.746;2023-07-31T07:56:25;3.27;;;3.03;;
16516;SDS011;8371;52.272;9.746;2023-07-31T07:58:52;3.30;;;3.20;;
16516;SDS011;8371;52.272;9.746;2023-07-31T08:01:18;3.53;;;3.33;;
16516;SDS011;8371;52.272;9.746;2023-07-31T08:03:43;2.67;;;2.57;;
16516;SDS011;8371;52.272;9.746;2023-07-31T08:06:09;3.00;;;2.80;;
16516;SDS011;8371;52.272;9.746;2023-07-31T08:08:35;3.10;;;2.80;;
16516;SDS011;8371;52.272;9.746;2023-07-31T08:11:01;2.97;;;2.53;;
16516;SDS011;8371;52.272;9.746;2023-07-31T08:13:27;2.83;;;2.50;;
16516;SDS011;8371;52.272;9.746;2023-07-31T08:15:53;3.60;;;2.73;;
16516;SDS011;8371;52.272;9.746;2023-07-31T08:18:19;4.60;;;2.87;;
16516;SDS011;8371;52.272;9.746;2023-07-31T08:20:45;2.90;;;2.70;;
16516;SDS011;8371;52.272;9.746;2023-07-31T08:23:11;2.97;;;2.87;;
16516;SDS011;8371;52.272;9.746;2023-07-31T08:25:36;3.43;;;3.00;;
16516;SDS011;8371;52.272;9.746;2023-07-31T08:28:02;2.63;;;2.53;;
16516;SDS011;8371;52.272;9.746;2023-07-31T08:30:29;2.30;;;2.20;;
16516;SDS011;8371;52.272;9.746;2023-07-31T08:32:55;2.40;;;2.27;;
16516;SDS011;8371;52.272;9.746;2023-07-31T08:35:21;4.27;;;2.87;;
16516;SDS011;8371;52.272;9.746;2023-07-31T08:37:47;2.80;;;2.60;;
16516;SDS011;8371;52.272;9.746;2023-07-31T08:40:12;2.87;;;2.67;;
16516;SDS011;8371;52.272;9.746;2023-07-31T08:42:45;2.70;;;2.60;;
16516;SDS011;8371;52.272;9.746;2023-07-31T08:45:16;2.60;;;2.50;;
16516;SDS011;8371;52.272;9.746;2023-07-31T08:47:47;3.00;;;2.73;;
16516;SDS011;8371;52.272;9.746;2023-07-31T08:50:14;2.67;;;2.57;;
16516;SDS011;8371;52.272;9.746;2023-07-31T08:53:01;2.20;;;2.10;;
16516;SDS011;8371;52.272;9.746;2023-07-31T08:55:27;1.90;;;1.73;;
16516;SDS011;8371;52.272;9.746;2023-07-31T08:57:54;2.20;;;2.10;;
16516;SDS011;8371;52.272;9.746;2023-07-31T09:00:21;3.10;;;2.83;;
16516;SDS011;8371;52.272;9.746;2023-07-31T09:03:02;2.20;;;2.10;;
16516;SDS011;8371;52.272;9.746;2023-07-31T09:05:31;2.27;;;2.07;;
16516;SDS011;8371;52.272;9.746;2023-07-31T09:07:57;1.83;;;1.73;;
16516;SDS011;8371;52.272;9.746;2023-07-31T09:10:24;1.77;;;1.67;;
16516;SDS011;8371;52.272;9.746;2023-07-31T09:12:53;1.60;;;1.60;;
16516;SDS011;8371;52.272;9.746;2023-07-31T09:15:19;1.70;;;1.70;;
16516;SDS011;8371;52.272;9.746;2023-07-31T09:17:46;1.97;;;1.87;;
16516;SDS011;8371;52.272;9.746;2023-07-31T09:20:12;1.43;;;1.43;;
16516;SDS011;8371;52.272;9.746;2023-07-31T09:22:40;1.40;;;1.40;;
16516;SDS011;8371;52.272;9.746;2023-07-31T09:27:57;1.30;;;1.30;;
16516;SDS011;8371;52.272;9.746;2023-07-31T09:30:24;0.83;;;0.83;;
16516;SDS011;8371;52.272;9.746;2023-07-31T09:32:51;0.90;;;0.90;;
16516;SDS011;8371;52.272;9.746;2023-07-31T09:35:31;0.80;;;0.80;;
16516;SDS011;8371;52.272;9.746;2023-07-31T09:37:59;0.90;;;0.90;;
16516;SDS011;8371;52.272;9.746;2023-07-31T09:40:32;0.93;;;0.93;;
16516;SDS011;8371;52.272;9.746;2023-07-31T09:42:56;0.77;;;0.77;;
16516;SDS011;8371;52.272;9.746;2023-07-31T09:45:24;0.90;;;0.90;;
16516;SDS011;8371;52.272;9.746;2023-07-31T09:47:50;0.70;;;0.70;;
16516;SDS011;8371;52.272;9.746;2023-07-31T09:50:16;0.77;;;0.77;;
16516;SDS011;8371;52.272;9.746;2023-07-31T09:52:42;0.70;;;0.70;;
16516;SDS011;8371;52.272;9.746;2023-07-31T09:55:08;0.80;;;0.80;;
16516;SDS011;8371;52.272;9.746;2023-07-31T09:57:44;0.60;;;0.60;;
16516;SDS011;8371;52.272;9.746;2023-07-31T10:00:10;0.67;;;0.67;;
16516;SDS011;8371;52.272;9.746;2023-07-31T10:02:37;0.60;;;0.60;;
16516;SDS011;8371;52.272;9.746;2023-07-31T10:05:04;0.90;;;0.90;;
16516;SDS011;8371;52.272;9.746;2023-07-31T10:07:33;1.00;;;1.00;;
16516;SDS011;8371;52.272;9.746;2023-07-31T10:10:01;0.80;;;0.80;;
16516;SDS011;8371;52.272;9.746;2023-07-31T10:12:29;0.90;;;0.90;;
16516;SDS011;8371;52.272;9.746;2023-07-31T10:14:56;0.90;;;0.90;;
16516;SDS011;8371;52.272;9.746;2023-07-31T10:17:25;1.10;;;1.10;;
16516;SDS011;8371;52.272;9.746;2023-07-31T10:19:51;1.23;;;1.23;;
16516;SDS011;8371;52.272;9.746;2023-07-31T10:22:19;1.10;;;1.10;;
16516;SDS011;8371;52.272;9.746;2023-07-31T10:24:46;1.03;;;1.03;;
16516;SDS011;8371;52.272;9.746;2023-07-31T10:27:12;0.90;;;0.90;;
16516;SDS011;8371;52.272;9.746;2023-07-31T10:29:38;1.03;;;1.03;;
16516;SDS011;8371;52.272;9.746;2023-07-31T10:32:06;1.63;;;1.17;;
16516;SDS011;8371;52.272;9.746;2023-07-31T10:34:34;1.00;;;1.00;;
16516;SDS011;8371;52.272;9.746;2023-07-31T10:42:44;1.13;;;1.13;;
16516;SDS011;8371;52.272;9.746;2023-07-31T10:45:13;1.03;;;1.03;;
16516;SDS011;8371;52.272;9.746;2023-07-31T10:47:44;0.93;;;0.93;;
16516;SDS011;8371;52.272;9.746;2023-07-31T10:50:12;1.33;;;1.33;;
16516;SDS011;8371;52.272;9.746;2023-07-31T10:52:39;1.00;;;1.00;;
16516;SDS011;8371;52.272;9.746;2023-07-31T10:55:14;1.13;;;1.13;;
16516;SDS011;8371;52.272;9.746;2023-07-31T10:57:51;1.10;;;1.10;;
16516;SDS011;8371;52.272;9.746;2023-07-31T11:00:18;1.20;;;1.20;;
16516;SDS011;8371;52.272;9.746;2023-07-31T11:02:57;1.57;;;1.50;;
16516;SDS011;8371;52.272;9.746;2023-07-31T11:08:26;1.30;;;1.30;;
16516;SDS011;8371;52.272;9.746;2023-07-31T11:13:32;1.23;;;1.23;;
16516;SDS011;8371;52.272;9.746;2023-07-31T11:16:00;1.10;;;1.10;;
16516;SDS011;8371;52.272;9.746;2023-07-31T11:18:26;1.17;;;1.17;;
16516;SDS011;8371;52.272;9.746;2023-07-31T11:20:53;1.23;;;1.23;;
16516;SDS011;8371;52.272;9.746;2023-07-31T11:23:19;1.60;;;1.60;;
16516;SDS011;8371;52.272;9.746;2023-07-31T11:25:45;1.20;;;1.20;;
16516;SDS011;8371;52.272;9.746;2023-07-31T11:28:12;1.33;;;1.20;;
16516;SDS011;8371;52.272;9.746;2023-07-31T11:30:39;1.20;;;1.10;;
16516;SDS011;8371;52.272;9.746;2023-07-31T11:33:06;1.03;;;1.03;;
16516;SDS011;8371;52.272;9.746;2023-07-31T11:35:33;1.23;;;1.23;;
16516;SDS011;8371;52.272;9.746;2023-07-31T11:38:00;0.80;;;0.80;;
16516;SDS011;8371;52.272;9.746;2023-07-31T11:40:27;1.07;;;1.07;;
16516;SDS011;8371;52.272;9.746;2023-07-31T11:42:55;1.30;;;1.27;;
16516;SDS011;8371;52.272;9.746;2023-07-31T11:45:23;1.07;;;1.07;;
16516;SDS011;8371;52.272;9.746;2023-07-31T11:47:51;1.10;;;1.10;;
16516;SDS011;8371;52.272;9.746;2023-07-31T11:50:16;0.93;;;0.93;;
16516;SDS011;8371;52.272;9.746;2023-07-31T11:52:42;1.30;;;1.30;;
16516;SDS011;8371;52.272;9.746;2023-07-31T11:55:10;1.00;;;1.00;;
16516;SDS011;8371;52.272;9.746;2023-07-31T11:57:38;1.07;;;1.07;;
16516;SDS011;8371;52.272;9.746;2023-07-31T12:00:06;1.00;;;1.00;;
16516;SDS011;8371;52.272;9.746;2023-07-31T12:02:33;1.00;;;1.00;;
16516;SDS011;8371;52.272;9.746;2023-07-31T12:04:59;0.90;;;0.90;;
16516;SDS011;8371;52.272;9.746;2023-07-31T12:07:25;0.80;;;0.80;;
16516;SDS011;8371;52.272;9.746;2023-07-31T12:09:52;0.80;;;0.80;;
16516;SDS011;8371;52.272;9.746;2023-07-31T12:12:23;0.87;;;0.87;;
16516;SDS011;8371;52.272;9.746;2023-07-31T12:14:50;0.70;;;0.70;;
16516;SDS011;8371;52.272;9.746;2023-07-31T12:17:17;1.73;;;1.03;;
16516;SDS011;8371;52.272;9.746;2023-07-31T12:19:45;0.90;;;0.90;;
16516;SDS011;8371;52.272;9.746;2023-07-31T12:22:13;0.70;;;0.70;;
16516;SDS011;8371;52.272;9.746;2023-07-31T12:24:43;1.03;;;1.00;;
16516;SDS011;8371;52.272;9.746;2023-07-31T12:27:12;0.70;;;0.70;;
16516;SDS011;8371;52.272;9.746;2023-07-31T12:29:41;1.17;;;0.87;;
16516;SDS011;8371;52.272;9.746;2023-07-31T12:32:22;0.70;;;0.70;;
16516;SDS011;8371;52.272;9.746;2023-07-31T12:34:50;0.80;;;0.80;;
16516;SDS011;8371;52.272;9.746;2023-07-31T12:37:16;0.60;;;0.60;;
16516;SDS011;8371;52.272;9.746;2023-07-31T12:39:43;0.70;;;0.70;;
16516;SDS011;8371;52.272;9.746;2023-07-31T12:42:08;0.70;;;0.70;;
16516;SDS011;8371;52.272;9.746;2023-07-31T12:44:34;0.67;;;0.67;;
16516;SDS011;8371;52.272;9.746;2023-07-31T12:47:00;0.60;;;0.60;;
16516;SDS011;8371;52.272;9.746;2023-07-31T12:49:25;0.60;;;0.60;;
16516;SDS011;8371;52.272;9.746;2023-07-31T12:51:51;1.27;;;0.50;;
16516;SDS011;8371;52.272;9.746;2023-07-31T12:54:19;0.40;;;0.40;;
16516;SDS011;8371;52.272;9.746;2023-07-31T12:56:44;0.40;;;0.40;;
16516;SDS011;8371;52.272;9.746;2023-07-31T12:59:10;0.50;;;0.50;;
16516;SDS011;8371;52.272;9.746;2023-07-31T13:01:36;0.30;;;0.30;;
16516;SDS011;8371;52.272;9.746;2023-07-31T13:04:01;0.50;;;0.50;;
16516;SDS011;8371;52.272;9.746;2023-07-31T13:06:27;0.50;;;0.50;;
16516;SDS011;8371;52.272;9.746;2023-07-31T13:08:53;0.40;;;0.40;;
16516;SDS011;8371;52.272;9.746;2023-07-31T13:11:19;0.40;;;0.40;;
16516;SDS011;8371;52.272;9.746;2023-07-31T13:13:44;0.57;;;0.57;;
16516;SDS011;8371;52.272;9.746;2023-07-31T13:16:10;0.63;;;0.53;;
16516;SDS011;8371;52.272;9.746;2023-07-31T13:18:36;0.50;;;0.50;;
16516;SDS011;8371;52.272;9.746;2023-07-31T13:21:02;0.30;;;0.30;;
16516;SDS011;8371;52.272;9.746;2023-07-31T13:23:27;0.40;;;0.40;;
16516;SDS011;8371;52.272;9.746;2023-07-31T13:25:53;0.50;;;0.50;;
16516;SDS011;8371;52.272;9.746;2023-07-31T13:28:19;0.50;;;0.50;;
16516;SDS011;8371;52.272;9.746;2023-07-31T13:30:44;0.50;;;0.50;;
16516;SDS011;8371;52.272;9.746;2023-07-31T13:33:11;0.40;;;0.40;;
16516;SDS011;8371;52.272;9.746;2023-07-31T13:35:37;0.30;;;0.30;;
16516;SDS011;8371;52.272;9.746;2023-07-31T13:38:02;0.40;;;0.40;;
16516;SDS011;8371;52.272;9.746;2023-07-31T13:40:28;0.37;;;0.37;;
16516;SDS011;8371;52.272;9.746;2023-07-31T13:42:54;0.33;;;0.33;;
16516;SDS011;8371;52.272;9.746;2023-07-31T13:45:21;0.20;;;0.20;;
16516;SDS011;8371;52.272;9.746;2023-07-31T13:47:46;0.30;;;0.30;;
16516;SDS011;8371;52.272;9.746;2023-07-31T13:50:12;0.50;;;0.50;;
16516;SDS011;8371;52.272;9.746;2023-07-31T13:52:38;0.33;;;0.33;;
16516;SDS011;8371;52.272;9.746;2023-07-31T13:55:03;0.20;;;0.20;;
16516;SDS011;8371;52.272;9.746;2023-07-31T13:57:30;0.20;;;0.20;;
16516;SDS011;8371;52.272;9.746;2023-07-31T13:59:55;0.27;;;0.27;;
16516;SDS011;8371;52.272;9.746;2023-07-31T14:02:21;0.57;;;0.30;;
16516;SDS011;8371;52.272;9.746;2023-07-31T14:04:47;0.40;;;0.40;;
16516;SDS011;8371;52.272;9.746;2023-07-31T14:07:12;0.37;;;0.37;;
16516;SDS011;8371;52.272;9.746;2023-07-31T14:09:38;0.30;;;0.30;;
16516;SDS011;8371;52.272;9.746;2023-07-31T14:12:04;0.30;;;0.30;;
16516;SDS011;8371;52.272;9.746;2023-07-31T14:14:30;0.43;;;0.40;;
16516;SDS011;8371;52.272;9.746;2023-07-31T14:16:56;0.30;;;0.30;;
16516;SDS011;8371;52.272;9.746;2023-07-31T14:19:22;0.33;;;0.33;;
16516;SDS011;8371;52.272;9.746;2023-07-31T14:21:47;0.40;;;0.40;;
16516;SDS011;8371;52.272;9.746;2023-07-31T14:24:13;0.40;;;0.40;;
16516;SDS011;8371;52.272;9.746;2023-07-31T14:26:39;0.47;;;0.47;;
16516;SDS011;8371;52.272;9.746;2023-07-31T14:29:04;0.77;;;0.77;;
16516;SDS011;8371;52.272;9.746;2023-07-31T14:31:30;0.70;;;0.70;;
16516;SDS011;8371;52.272;9.746;2023-07-31T14:33:55;0.70;;;0.70;;
16516;SDS011;8371;52.272;9.746;2023-07-31T14:36:21;0.80;;;0.80;;
16516;SDS011;8371;52.272;9.746;2023-07-31T14:38:47;0.60;;;0.60;;
16516;SDS011;8371;52.272;9.746;2023-07-31T14:41:12;0.87;;;0.87;;
16516;SDS011;8371;52.272;9.746;2023-07-31T14:43:38;0.80;;;0.80;;
16516;SDS011;8371;52.272;9.746;2023-07-31T14:46:04;1.00;;;1.00;;
16516;SDS011;8371;52.272;9.746;2023-07-31T14:48:30;0.93;;;0.93;;
16516;SDS011;8371;52.272;9.746;2023-07-31T14:50:56;0.73;;;0.73;;
16516;SDS011;8371;52.272;9.746;2023-07-31T14:53:22;0.70;;;0.70;;
16516;SDS011;8371;52.272;9.746;2023-07-31T14:55:47;0.97;;;0.97;;
16516;SDS011;8371;52.272;9.746;2023-07-31T14:58:13;0.90;;;0.90;;
16516;SDS011;8371;52.272;9.746;2023-07-31T15:00:39;0.80;;;0.80;;
16516;SDS011;8371;52.272;9.746;2023-07-31T15:03:05;0.70;;;0.70;;
16516;SDS011;8371;52.272;9.746;2023-07-31T15:05:31;0.70;;;0.70;;
16516;SDS011;8371;52.272;9.746;2023-07-31T15:07:57;0.90;;;0.90;;
16516;SDS011;8371;52.272;9.746;2023-07-31T15:10:22;0.90;;;0.90;;
16516;SDS011;8371;52.272;9.746;2023-07-31T15:12:48;0.90;;;0.90;;
16516;SDS011;8371;52.272;9.746;2023-07-31T15:15:14;0.77;;;0.77;;